Terminal Aerodrome Forecast
Issued by NWS

Home | Current Version | Previous Version | Text Only | Print | Product List | Glossary On
Versions: 1 2 3 4 5 6 7 8 9 10 11 12 13 14 15 16 17 18 19 20 21 22 23 24
000
FTUS45 KSLC 021120
TAFOGD
TAF
KOGD 021120Z 0212/0312 17007KT P6SM BKN200
     FM022000 28006KT P6SM BKN150 OVC200
     FM030100 16010G16KT P6SM FEW100 BKN150
     FM030800 17008KT P6SM SCT100 OVC150=

USA.gov is the U.S. government's official web portal to all federal, state and local government web resources and services.